sensor_id;sensor_type;location;lat;lon;timestamp;P1;durP1;ratioP1;P2;durP2;ratioP2
60716;SDS011;46566;52.700;6.192;2022-12-18T00:02:05;32.38;;;9.95;;
60716;SDS011;46566;52.700;6.192;2022-12-18T00:04:31;27.02;;;10.65;;
60716;SDS011;46566;52.700;6.192;2022-12-18T00:06:57;16.60;;;8.52;;
60716;SDS011;46566;52.700;6.192;2022-12-18T00:09:23;58.80;;;18.40;;
60716;SDS011;46566;52.700;6.192;2022-12-18T00:11:49;59.28;;;20.35;;
60716;SDS011;46566;52.700;6.192;2022-12-18T00:14:15;72.88;;;24.65;;
60716;SDS011;46566;52.700;6.192;2022-12-18T00:16:43;32.83;;;13.00;;
60716;SDS011;46566;52.700;6.192;2022-12-18T00:19:09;33.63;;;13.13;;
60716;SDS011;46566;52.700;6.192;2022-12-18T00:21:35;60.20;;;20.58;;
60716;SDS011;46566;52.700;6.192;2022-12-18T00:24:01;9.52;;;4.72;;
60716;SDS011;46566;52.700;6.192;2022-12-18T00:26:29;46.13;;;16.98;;
60716;SDS011;46566;52.700;6.192;2022-12-18T00:29:00;55.53;;;18.70;;
60716;SDS011;46566;52.700;6.192;2022-12-18T00:31:29;71.93;;;22.08;;
60716;SDS011;46566;52.700;6.192;2022-12-18T00:33:55;60.40;;;20.77;;
60716;SDS011;46566;52.700;6.192;2022-12-18T00:36:23;49.17;;;16.20;;
60716;SDS011;46566;52.700;6.192;2022-12-18T00:38:51;54.15;;;19.98;;
60716;SDS011;46566;52.700;6.192;2022-12-18T00:41:18;32.00;;;10.98;;
60716;SDS011;46566;52.700;6.192;2022-12-18T00:44:04;35.88;;;14.75;;
60716;SDS011;46566;52.700;6.192;2022-12-18T00:46:30;78.35;;;26.98;;
60716;SDS011;46566;52.700;6.192;2022-12-18T00:48:57;22.98;;;8.95;;
60716;SDS011;46566;52.700;6.192;2022-12-18T00:51:23;39.40;;;14.90;;
60716;SDS011;46566;52.700;6.192;2022-12-18T00:53:49;74.72;;;25.02;;
60716;SDS011;46566;52.700;6.192;2022-12-18T00:56:15;63.50;;;17.08;;
60716;SDS011;46566;52.700;6.192;2022-12-18T00:58:40;3.88;;;3.50;;
60716;SDS011;46566;52.700;6.192;2022-12-18T01:01:06;35.40;;;12.95;;
60716;SDS011;46566;52.700;6.192;2022-12-18T01:03:33;54.08;;;19.55;;
60716;SDS011;46566;52.700;6.192;2022-12-18T01:05:59;71.90;;;22.60;;
60716;SDS011;46566;52.700;6.192;2022-12-18T01:08:24;35.40;;;14.65;;
60716;SDS011;46566;52.700;6.192;2022-12-18T01:10:50;48.95;;;17.80;;
60716;SDS011;46566;52.700;6.192;2022-12-18T01:13:16;57.25;;;23.85;;
60716;SDS011;46566;52.700;6.192;2022-12-18T01:15:48;19.75;;;8.63;;
60716;SDS011;46566;52.700;6.192;2022-12-18T01:18:14;15.80;;;6.72;;
60716;SDS011;46566;52.700;6.192;2022-12-18T01:20:39;16.90;;;11.93;;
60716;SDS011;46566;52.700;6.192;2022-12-18T01:23:05;37.15;;;14.70;;
60716;SDS011;46566;52.700;6.192;2022-12-18T01:25:32;13.35;;;7.38;;
60716;SDS011;46566;52.700;6.192;2022-12-18T01:28:20;22.02;;;9.23;;
60716;SDS011;46566;52.700;6.192;2022-12-18T01:30:46;72.68;;;23.02;;
60716;SDS011;46566;52.700;6.192;2022-12-18T01:33:12;64.22;;;20.95;;
60716;SDS011;46566;52.700;6.192;2022-12-18T01:35:43;21.90;;;10.18;;
60716;SDS011;46566;52.700;6.192;2022-12-18T01:38:09;55.55;;;15.68;;
60716;SDS011;46566;52.700;6.192;2022-12-18T01:40:35;19.85;;;8.93;;
60716;SDS011;46566;52.700;6.192;2022-12-18T01:43:01;56.10;;;17.88;;
60716;SDS011;46566;52.700;6.192;2022-12-18T01:45:28;101.40;;;34.35;;
60716;SDS011;46566;52.700;6.192;2022-12-18T01:47:56;68.68;;;21.65;;
60716;SDS011;46566;52.700;6.192;2022-12-18T01:50:38;43.15;;;15.27;;
60716;SDS011;46566;52.700;6.192;2022-12-18T01:53:15;56.67;;;20.27;;
60716;SDS011;46566;52.700;6.192;2022-12-18T01:55:48;26.23;;;13.90;;
60716;SDS011;46566;52.700;6.192;2022-12-18T01:58:20;47.13;;;18.50;;
60716;SDS011;46566;52.700;6.192;2022-12-18T02:00:53;18.70;;;8.32;;
60716;SDS011;46566;52.700;6.192;2022-12-18T02:03:19;50.42;;;13.88;;
60716;SDS011;46566;52.700;6.192;2022-12-18T02:16:01;22.33;;;9.30;;
60716;SDS011;46566;52.700;6.192;2022-12-18T02:18:29;49.30;;;15.82;;
60716;SDS011;46566;52.700;6.192;2022-12-18T02:24:42;37.13;;;13.80;;
60716;SDS011;46566;52.700;6.192;2022-12-18T02:27:03;15.65;;;8.63;;
60716;SDS011;46566;52.700;6.192;2022-12-18T02:29:48;34.28;;;14.52;;
60716;SDS011;46566;52.700;6.192;2022-12-18T02:32:18;52.28;;;17.25;;
60716;SDS011;46566;52.700;6.192;2022-12-18T02:34:50;36.58;;;15.45;;
60716;SDS011;46566;52.700;6.192;2022-12-18T02:37:18;13.25;;;5.75;;
60716;SDS011;46566;52.700;6.192;2022-12-18T02:39:47;39.30;;;15.38;;
60716;SDS011;46566;52.700;6.192;2022-12-18T02:42:15;24.13;;;10.85;;
60716;SDS011;46566;52.700;6.192;2022-12-18T02:44:46;22.77;;;8.43;;
60716;SDS011;46566;52.700;6.192;2022-12-18T02:47:17;29.42;;;11.38;;
60716;SDS011;46566;52.700;6.192;2022-12-18T02:50:05;22.50;;;5.72;;
60716;SDS011;46566;52.700;6.192;2022-12-18T02:52:47;35.53;;;14.90;;
60716;SDS011;46566;52.700;6.192;2022-12-18T02:58:30;38.80;;;14.70;;
60716;SDS011;46566;52.700;6.192;2022-12-18T03:02:00;18.58;;;7.35;;
60716;SDS011;46566;52.700;6.192;2022-12-18T03:04:12;6.43;;;5.23;;
60716;SDS011;46566;52.700;6.192;2022-12-18T03:06:45;37.30;;;13.03;;
60716;SDS011;46566;52.700;6.192;2022-12-18T03:09:17;36.70;;;16.67;;
60716;SDS011;46566;52.700;6.192;2022-12-18T03:11:47;45.80;;;19.17;;
60716;SDS011;46566;52.700;6.192;2022-12-18T03:14:37;33.83;;;12.68;;
60716;SDS011;46566;52.700;6.192;2022-12-18T03:17:05;46.77;;;18.00;;
60716;SDS011;46566;52.700;6.192;2022-12-18T03:19:37;45.33;;;19.25;;
60716;SDS011;46566;52.700;6.192;2022-12-18T03:22:05;27.67;;;10.07;;
60716;SDS011;46566;52.700;6.192;2022-12-18T03:24:41;58.87;;;18.50;;
60716;SDS011;46566;52.700;6.192;2022-12-18T03:27:09;68.47;;;24.33;;
60716;SDS011;46566;52.700;6.192;2022-12-18T03:29:47;36.57;;;13.73;;
60716;SDS011;46566;52.700;6.192;2022-12-18T03:32:23;43.83;;;13.17;;
60716;SDS011;46566;52.700;6.192;2022-12-18T03:34:53;55.90;;;19.77;;
60716;SDS011;46566;52.700;6.192;2022-12-18T03:37:22;21.13;;;7.83;;
60716;SDS011;46566;52.700;6.192;2022-12-18T03:39:51;28.50;;;9.57;;
60716;SDS011;46566;52.700;6.192;2022-12-18T03:42:25;48.03;;;17.23;;
60716;SDS011;46566;52.700;6.192;2022-12-18T03:45:08;29.48;;;10.65;;
60716;SDS011;46566;52.700;6.192;2022-12-18T03:47:45;35.50;;;12.77;;
60716;SDS011;46566;52.700;6.192;2022-12-18T03:55:47;14.00;;;5.63;;
60716;SDS011;46566;52.700;6.192;2022-12-18T03:58:16;12.63;;;6.40;;
60716;SDS011;46566;52.700;6.192;2022-12-18T04:00:52;36.10;;;14.13;;
60716;SDS011;46566;52.700;6.192;2022-12-18T04:03:21;31.70;;;14.10;;
60716;SDS011;46566;52.700;6.192;2022-12-18T04:05:49;55.25;;;19.92;;
60716;SDS011;46566;52.700;6.192;2022-12-18T04:08:20;10.10;;;6.57;;
60716;SDS011;46566;52.700;6.192;2022-12-18T04:10:56;38.50;;;15.00;;
60716;SDS011;46566;52.700;6.192;2022-12-18T04:13:28;42.47;;;16.70;;
60716;SDS011;46566;52.700;6.192;2022-12-18T04:15:59;22.40;;;10.13;;
60716;SDS011;46566;52.700;6.192;2022-12-18T04:18:25;14.70;;;6.07;;
60716;SDS011;46566;52.700;6.192;2022-12-18T04:20:51;32.77;;;11.90;;
60716;SDS011;46566;52.700;6.192;2022-12-18T04:23:17;34.00;;;13.70;;
60716;SDS011;46566;52.700;6.192;2022-12-18T04:25:43;16.40;;;10.30;;
60716;SDS011;46566;52.700;6.192;2022-12-18T04:28:14;42.53;;;16.73;;
60716;SDS011;46566;52.700;6.192;2022-12-18T04:30:39;12.83;;;7.53;;
60716;SDS011;46566;52.700;6.192;2022-12-18T04:33:09;41.53;;;13.03;;
60716;SDS011;46566;52.700;6.192;2022-12-18T04:35:36;45.20;;;12.70;;
60716;SDS011;46566;52.700;6.192;2022-12-18T04:38:02;11.17;;;5.23;;
60716;SDS011;46566;52.700;6.192;2022-12-18T04:40:27;41.85;;;16.52;;
60716;SDS011;46566;52.700;6.192;2022-12-18T04:42:53;34.70;;;12.07;;
60716;SDS011;46566;52.700;6.192;2022-12-18T04:45:19;24.97;;;9.83;;
60716;SDS011;46566;52.700;6.192;2022-12-18T04:47:44;38.75;;;13.93;;
60716;SDS011;46566;52.700;6.192;2022-12-18T04:50:10;22.92;;;8.30;;
60716;SDS011;46566;52.700;6.192;2022-12-18T04:52:36;17.02;;;7.93;;
60716;SDS011;46566;52.700;6.192;2022-12-18T04:55:01;21.60;;;9.20;;
60716;SDS011;46566;52.700;6.192;2022-12-18T04:57:28;30.07;;;7.27;;
60716;SDS011;46566;52.700;6.192;2022-12-18T04:59:53;17.23;;;10.53;;
60716;SDS011;46566;52.700;6.192;2022-12-18T05:02:19;37.33;;;13.67;;
60716;SDS011;46566;52.700;6.192;2022-12-18T05:04:45;12.20;;;6.00;;
60716;SDS011;46566;52.700;6.192;2022-12-18T05:07:10;42.07;;;16.27;;
60716;SDS011;46566;52.700;6.192;2022-12-18T05:09:36;15.77;;;7.87;;
60716;SDS011;46566;52.700;6.192;2022-12-18T05:12:01;28.90;;;13.80;;
60716;SDS011;46566;52.700;6.192;2022-12-18T05:14:27;7.77;;;3.60;;
60716;SDS011;46566;52.700;6.192;2022-12-18T05:16:54;38.63;;;15.27;;
60716;SDS011;46566;52.700;6.192;2022-12-18T05:19:20;34.00;;;12.87;;
60716;SDS011;46566;52.700;6.192;2022-12-18T05:21:46;28.27;;;12.23;;
60716;SDS011;46566;52.700;6.192;2022-12-18T05:24:11;34.00;;;13.27;;
60716;SDS011;46566;52.700;6.192;2022-12-18T05:26:37;9.53;;;3.43;;
60716;SDS011;46566;52.700;6.192;2022-12-18T05:29:02;13.20;;;6.23;;
60716;SDS011;46566;52.700;6.192;2022-12-18T05:31:28;22.93;;;11.53;;
60716;SDS011;46566;52.700;6.192;2022-12-18T05:33:54;13.07;;;4.93;;
60716;SDS011;46566;52.700;6.192;2022-12-18T05:36:20;32.23;;;12.37;;
60716;SDS011;46566;52.700;6.192;2022-12-18T05:38:45;16.10;;;7.20;;
60716;SDS011;46566;52.700;6.192;2022-12-18T05:41:11;32.17;;;11.60;;
60716;SDS011;46566;52.700;6.192;2022-12-18T05:43:38;14.33;;;5.10;;
60716;SDS011;46566;52.700;6.192;2022-12-18T05:46:11;5.33;;;4.80;;
60716;SDS011;46566;52.700;6.192;2022-12-18T05:48:38;7.27;;;5.23;;
60716;SDS011;46566;52.700;6.192;2022-12-18T05:51:05;26.10;;;9.73;;
60716;SDS011;46566;52.700;6.192;2022-12-18T05:53:33;32.97;;;12.40;;
60716;SDS011;46566;52.700;6.192;2022-12-18T05:56:00;19.48;;;7.75;;
60716;SDS011;46566;52.700;6.192;2022-12-18T05:58:27;13.55;;;6.95;;
60716;SDS011;46566;52.700;6.192;2022-12-18T06:00:53;1.73;;;1.63;;
60716;SDS011;46566;52.700;6.192;2022-12-18T06:03:19;10.95;;;6.82;;
60716;SDS011;46566;52.700;6.192;2022-12-18T06:05:45;3.15;;;3.05;;
60716;SDS011;46566;52.700;6.192;2022-12-18T06:08:11;2.73;;;1.47;;
60716;SDS011;46566;52.700;6.192;2022-12-18T06:10:38;16.93;;;7.87;;
60716;SDS011;46566;52.700;6.192;2022-12-18T06:13:04;13.47;;;8.27;;
60716;SDS011;46566;52.700;6.192;2022-12-18T06:15:30;0.80;;;0.80;;
60716;SDS011;46566;52.700;6.192;2022-12-18T06:17:56;4.60;;;2.87;;
60716;SDS011;46566;52.700;6.192;2022-12-18T06:20:22;3.33;;;2.93;;
60716;SDS011;46566;52.700;6.192;2022-12-18T06:22:48;22.98;;;9.90;;
60716;SDS011;46566;52.700;6.192;2022-12-18T06:25:14;10.20;;;6.00;;
60716;SDS011;46566;52.700;6.192;2022-12-18T06:27:39;2.83;;;2.73;;
60716;SDS011;46566;52.700;6.192;2022-12-18T06:30:05;1.00;;;1.00;;
60716;SDS011;46566;52.700;6.192;2022-12-18T06:32:32;2.63;;;2.43;;
60716;SDS011;46566;52.700;6.192;2022-12-18T06:34:57;1.52;;;1.40;;
60716;SDS011;46566;52.700;6.192;2022-12-18T06:37:23;1.43;;;1.43;;
60716;SDS011;46566;52.700;6.192;2022-12-18T06:39:52;10.10;;;4.13;;
60716;SDS011;46566;52.700;6.192;2022-12-18T06:42:18;3.30;;;3.10;;
60716;SDS011;46566;52.700;6.192;2022-12-18T06:44:47;12.30;;;6.10;;
60716;SDS011;46566;52.700;6.192;2022-12-18T06:47:12;1.90;;;1.80;;
60716;SDS011;46566;52.700;6.192;2022-12-18T06:49:38;2.20;;;1.73;;
60716;SDS011;46566;52.700;6.192;2022-12-18T06:52:04;5.77;;;4.40;;
60716;SDS011;46566;52.700;6.192;2022-12-18T06:54:29;15.50;;;4.73;;
60716;SDS011;46566;52.700;6.192;2022-12-18T06:56:55;0.83;;;0.83;;
60716;SDS011;46566;52.700;6.192;2022-12-18T06:59:21;0.40;;;0.40;;
60716;SDS011;46566;52.700;6.192;2022-12-18T07:01:46;2.60;;;2.07;;
60716;SDS011;46566;52.700;6.192;2022-12-18T07:04:12;0.93;;;0.93;;
60716;SDS011;46566;52.700;6.192;2022-12-18T07:06:38;4.43;;;3.13;;
60716;SDS011;46566;52.700;6.192;2022-12-18T07:09:03;13.37;;;4.20;;
60716;SDS011;46566;52.700;6.192;2022-12-18T07:11:29;1.27;;;1.27;;
60716;SDS011;46566;52.700;6.192;2022-12-18T07:13:57;5.83;;;3.30;;
60716;SDS011;46566;52.700;6.192;2022-12-18T07:16:22;1.80;;;1.70;;
60716;SDS011;46566;52.700;6.192;2022-12-18T07:18:48;3.77;;;3.47;;
60716;SDS011;46566;52.700;6.192;2022-12-18T07:21:15;6.17;;;5.87;;
60716;SDS011;46566;52.700;6.192;2022-12-18T07:23:42;0.30;;;0.30;;
60716;SDS011;46566;52.700;6.192;2022-12-18T07:26:10;6.07;;;2.80;;
60716;SDS011;46566;52.700;6.192;2022-12-18T07:28:38;0.63;;;0.63;;
60716;SDS011;46566;52.700;6.192;2022-12-18T07:31:06;6.83;;;4.07;;
60716;SDS011;46566;52.700;6.192;2022-12-18T07:33:33;3.75;;;3.47;;
60716;SDS011;46566;52.700;6.192;2022-12-18T07:36:00;1.60;;;1.37;;
60716;SDS011;46566;52.700;6.192;2022-12-18T07:38:28;27.00;;;7.63;;
60716;SDS011;46566;52.700;6.192;2022-12-18T07:40:53;17.93;;;6.77;;
60716;SDS011;46566;52.700;6.192;2022-12-18T07:43:19;8.40;;;3.80;;
60716;SDS011;46566;52.700;6.192;2022-12-18T07:45:45;20.07;;;8.40;;
60716;SDS011;46566;52.700;6.192;2022-12-18T07:48:10;21.97;;;9.03;;
60716;SDS011;46566;52.700;6.192;2022-12-18T07:50:36;3.70;;;2.40;;
60716;SDS011;46566;52.700;6.192;2022-12-18T07:53:02;14.93;;;6.70;;
60716;SDS011;46566;52.700;6.192;2022-12-18T07:55:30;21.10;;;7.50;;
60716;SDS011;46566;52.700;6.192;2022-12-18T07:57:56;27.37;;;7.80;;
60716;SDS011;46566;52.700;6.192;2022-12-18T08:00:25;12.43;;;6.93;;
60716;SDS011;46566;52.700;6.192;2022-12-18T08:02:50;14.47;;;9.63;;
60716;SDS011;46566;52.700;6.192;2022-12-18T08:05:16;15.17;;;7.03;;
60716;SDS011;46566;52.700;6.192;2022-12-18T08:07:42;8.17;;;3.97;;
60716;SDS011;46566;52.700;6.192;2022-12-18T08:10:08;2.40;;;2.30;;
60716;SDS011;46566;52.700;6.192;2022-12-18T08:12:33;11.80;;;4.33;;
60716;SDS011;46566;52.700;6.192;2022-12-18T08:14:59;9.57;;;6.17;;
60716;SDS011;46566;52.700;6.192;2022-12-18T08:17:25;19.07;;;10.80;;
60716;SDS011;46566;52.700;6.192;2022-12-18T08:19:50;15.43;;;5.27;;
60716;SDS011;46566;52.700;6.192;2022-12-18T08:22:16;3.43;;;2.43;;
60716;SDS011;46566;52.700;6.192;2022-12-18T08:24:42;14.07;;;7.90;;
60716;SDS011;46566;52.700;6.192;2022-12-18T08:27:07;23.43;;;5.90;;
60716;SDS011;46566;52.700;6.192;2022-12-18T08:29:33;4.53;;;3.57;;
60716;SDS011;46566;52.700;6.192;2022-12-18T08:31:59;12.70;;;6.40;;
60716;SDS011;46566;52.700;6.192;2022-12-18T08:34:24;2.08;;;1.88;;
60716;SDS011;46566;52.700;6.192;2022-12-18T08:36:50;4.93;;;3.53;;
60716;SDS011;46566;52.700;6.192;2022-12-18T08:39:16;16.27;;;6.30;;
60716;SDS011;46566;52.700;6.192;2022-12-18T08:41:41;17.37;;;7.13;;
60716;SDS011;46566;52.700;6.192;2022-12-18T08:44:07;9.43;;;5.83;;
60716;SDS011;46566;52.700;6.192;2022-12-18T08:46:52;19.40;;;8.30;;
60716;SDS011;46566;52.700;6.192;2022-12-18T08:49:17;2.70;;;1.87;;
60716;SDS011;46566;52.700;6.192;2022-12-18T08:51:43;10.53;;;6.10;;
60716;SDS011;46566;52.700;6.192;2022-12-18T08:54:11;19.13;;;7.27;;
60716;SDS011;46566;52.700;6.192;2022-12-18T08:56:38;8.57;;;5.47;;
60716;SDS011;46566;52.700;6.192;2022-12-18T08:59:04;4.32;;;3.88;;
60716;SDS011;46566;52.700;6.192;2022-12-18T09:01:29;12.53;;;7.07;;
60716;SDS011;46566;52.700;6.192;2022-12-18T09:03:55;13.50;;;7.47;;
60716;SDS011;46566;52.700;6.192;2022-12-18T09:06:21;24.58;;;10.88;;
60716;SDS011;46566;52.700;6.192;2022-12-18T09:08:48;13.87;;;6.37;;
60716;SDS011;46566;52.700;6.192;2022-12-18T09:11:21;13.70;;;6.00;;
60716;SDS011;46566;52.700;6.192;2022-12-18T09:13:48;21.13;;;9.70;;
60716;SDS011;46566;52.700;6.192;2022-12-18T09:16:15;22.23;;;7.03;;
60716;SDS011;46566;52.700;6.192;2022-12-18T09:18:41;30.70;;;6.03;;
60716;SDS011;46566;52.700;6.192;2022-12-18T09:21:11;16.25;;;6.72;;
60716;SDS011;46566;52.700;6.192;2022-12-18T09:23:39;9.65;;;4.80;;
60716;SDS011;46566;52.700;6.192;2022-12-18T09:26:05;13.23;;;5.00;;
60716;SDS011;46566;52.700;6.192;2022-12-18T09:28:30;19.65;;;7.38;;
60716;SDS011;46566;52.700;6.192;2022-12-18T09:30:56;7.53;;;3.97;;
60716;SDS011;46566;52.700;6.192;2022-12-18T09:33:22;15.07;;;6.75;;
60716;SDS011;46566;52.700;6.192;2022-12-18T09:35:48;8.77;;;5.88;;
60716;SDS011;46566;52.700;6.192;2022-12-18T09:38:16;2.50;;;1.98;;
60716;SDS011;46566;52.700;6.192;2022-12-18T09:40:44;19.55;;;7.63;;
60716;SDS011;46566;52.700;6.192;2022-12-18T09:43:14;6.50;;;5.93;;
60716;SDS011;46566;52.700;6.192;2022-12-18T09:45:51;10.25;;;6.03;;
60716;SDS011;46566;52.700;6.192;2022-12-18T09:48:23;8.10;;;5.95;;
60716;SDS011;46566;52.700;6.192;2022-12-18T09:50:55;8.00;;;2.78;;
60716;SDS011;46566;52.700;6.192;2022-12-18T09:53:24;9.75;;;4.90;;
60716;SDS011;46566;52.700;6.192;2022-12-18T09:55:52;6.85;;;4.30;;
60716;SDS011;46566;52.700;6.192;2022-12-18T09:58:21;7.22;;;5.30;;
60716;SDS011;46566;52.700;6.192;2022-12-18T10:00:53;8.63;;;5.07;;
60716;SDS011;46566;52.700;6.192;2022-12-18T10:03:20;8.48;;;4.88;;
60716;SDS011;46566;52.700;6.192;2022-12-18T10:05:56;11.45;;;5.53;;
60716;SDS011;46566;52.700;6.192;2022-12-18T10:26:10;4.28;;;2.25;;
60716;SDS011;46566;52.700;6.192;2022-12-18T10:28:38;6.93;;;4.13;;
60716;SDS011;46566;52.700;6.192;2022-12-18T10:31:19;7.78;;;3.92;;
60716;SDS011;46566;52.700;6.192;2022-12-18T10:33:46;7.03;;;4.30;;
60716;SDS011;46566;52.700;6.192;2022-12-18T10:36:12;2.08;;;1.80;;
60716;SDS011;46566;52.700;6.192;2022-12-18T10:38:38;8.50;;;5.13;;
60716;SDS011;46566;52.700;6.192;2022-12-18T10:46:44;7.78;;;3.20;;
60716;SDS011;46566;52.700;6.192;2022-12-18T10:49:19;3.20;;;2.42;;
60716;SDS011;46566;52.700;6.192;2022-12-18T10:52:04;12.90;;;5.63;;
60716;SDS011;46566;52.700;6.192;2022-12-18T10:54:30;2.05;;;1.63;;
60716;SDS011;46566;52.700;6.192;2022-12-18T10:59:50;10.20;;;3.67;;
60716;SDS011;46566;52.700;6.192;2022-12-18T11:04:52;3.35;;;1.73;;
60716;SDS011;46566;52.700;6.192;2022-12-18T11:07:18;5.82;;;2.92;;
60716;SDS011;46566;52.700;6.192;2022-12-18T11:09:44;4.60;;;2.60;;
60716;SDS011;46566;52.700;6.192;2022-12-18T11:12:25;6.60;;;4.75;;
60716;SDS011;46566;52.700;6.192;2022-12-18T11:14:54;2.55;;;2.25;;
60716;SDS011;46566;52.700;6.192;2022-12-18T11:19:59;5.65;;;2.83;;
60716;SDS011;46566;52.700;6.192;2022-12-18T11:22:32;3.07;;;2.03;;
60716;SDS011;46566;52.700;6.192;2022-12-18T11:27:56;1.77;;;1.63;;
60716;SDS011;46566;52.700;6.192;2022-12-18T11:30:28;5.35;;;2.13;;
60716;SDS011;46566;52.700;6.192;2022-12-18T11:32:56;5.65;;;2.92;;
60716;SDS011;46566;52.700;6.192;2022-12-18T11:38:20;6.40;;;5.45;;
60716;SDS011;46566;52.700;6.192;2022-12-18T11:41:05;1.23;;;1.13;;
60716;SDS011;46566;52.700;6.192;2022-12-18T11:43:38;1.15;;;0.93;;
60716;SDS011;46566;52.700;6.192;2022-12-18T11:46:11;7.82;;;3.83;;
60716;SDS011;46566;52.700;6.192;2022-12-18T11:48:44;8.23;;;3.28;;
60716;SDS011;46566;52.700;6.192;2022-12-18T11:51:19;5.00;;;2.42;;
60716;SDS011;46566;52.700;6.192;2022-12-18T11:53:53;2.30;;;1.67;;
60716;SDS011;46566;52.700;6.192;2022-12-18T11:56:39;3.55;;;2.72;;
60716;SDS011;46566;52.700;6.192;2022-12-18T12:01:51;2.92;;;1.85;;
60716;SDS011;46566;52.700;6.192;2022-12-18T12:04:31;0.30;;;0.30;;
60716;SDS011;46566;52.700;6.192;2022-12-18T12:23:42;6.55;;;3.05;;
60716;SDS011;46566;52.700;6.192;2022-12-18T12:26:23;0.85;;;0.68;;
60716;SDS011;46566;52.700;6.192;2022-12-18T12:29:01;2.83;;;2.55;;
60716;SDS011;46566;52.700;6.192;2022-12-18T12:39:43;3.50;;;2.83;;
60716;SDS011;46566;52.700;6.192;2022-12-18T12:45:42;16.48;;;5.65;;
60716;SDS011;46566;52.700;6.192;2022-12-18T12:51:15;7.05;;;2.63;;
60716;SDS011;46566;52.700;6.192;2022-12-18T12:53:41;7.63;;;3.03;;
60716;SDS011;46566;52.700;6.192;2022-12-18T12:56:08;6.95;;;3.60;;
60716;SDS011;46566;52.700;6.192;2022-12-18T13:07:39;2.88;;;0.93;;
60716;SDS011;46566;52.700;6.192;2022-12-18T13:15:33;6.28;;;3.42;;
60716;SDS011;46566;52.700;6.192;2022-12-18T13:20:42;3.13;;;1.98;;
60716;SDS011;46566;52.700;6.192;2022-12-18T13:25:51;7.70;;;3.63;;
60716;SDS011;46566;52.700;6.192;2022-12-18T13:28:49;2.78;;;1.90;;
60716;SDS011;46566;52.700;6.192;2022-12-18T13:34:11;4.28;;;2.80;;
60716;SDS011;46566;52.700;6.192;2022-12-18T13:36:44;5.07;;;2.43;;
60716;SDS011;46566;52.700;6.192;2022-12-18T13:39:15;5.82;;;2.83;;
60716;SDS011;46566;52.700;6.192;2022-12-18T13:41:48;7.72;;;3.58;;
60716;SDS011;46566;52.700;6.192;2022-12-18T13:44:31;6.75;;;3.65;;
60716;SDS011;46566;52.700;6.192;2022-12-18T13:47:04;1.25;;;1.13;;
60716;SDS011;46566;52.700;6.192;2022-12-18T13:49:49;7.68;;;3.72;;
60716;SDS011;46566;52.700;6.192;2022-12-18T13:52:17;3.78;;;1.77;;
60716;SDS011;46566;52.700;6.192;2022-12-18T13:54:49;5.60;;;4.00;;
60716;SDS011;46566;52.700;6.192;2022-12-18T13:57:28;3.70;;;3.13;;
60716;SDS011;46566;52.700;6.192;2022-12-18T13:59:55;6.15;;;3.13;;
60716;SDS011;46566;52.700;6.192;2022-12-18T14:02:23;2.45;;;2.03;;
60716;SDS011;46566;52.700;6.192;2022-12-18T14:04:50;4.30;;;2.63;;
60716;SDS011;46566;52.700;6.192;2022-12-18T14:07:24;4.40;;;3.60;;
60716;SDS011;46566;52.700;6.192;2022-12-18T14:09:58;3.53;;;2.90;;
60716;SDS011;46566;52.700;6.192;2022-12-18T14:12:27;3.00;;;2.28;;
60716;SDS011;46566;52.700;6.192;2022-12-18T14:17:58;4.10;;;2.75;;
60716;SDS011;46566;52.700;6.192;2022-12-18T14:20:29;2.47;;;1.67;;
60716;SDS011;46566;52.700;6.192;2022-12-18T14:22:57;6.78;;;3.80;;
60716;SDS011;46566;52.700;6.192;2022-12-18T14:25:28;3.10;;;2.58;;
60716;SDS011;46566;52.700;6.192;2022-12-18T14:30:35;5.25;;;2.78;;
60716;SDS011;46566;52.700;6.192;2022-12-18T14:33:09;4.43;;;2.25;;
60716;SDS011;46566;52.700;6.192;2022-12-18T14:35:40;5.68;;;3.15;;
60716;SDS011;46566;52.700;6.192;2022-12-18T14:41:05;3.78;;;2.42;;
60716;SDS011;46566;52.700;6.192;2022-12-18T14:49:04;4.15;;;3.10;;
60716;SDS011;46566;52.700;6.192;2022-12-18T14:51:55;7.07;;;3.50;;
60716;SDS011;46566;52.700;6.192;2022-12-18T14:54:24;8.70;;;4.10;;
60716;SDS011;46566;52.700;6.192;2022-12-18T14:59:50;13.93;;;5.57;;
60716;SDS011;46566;52.700;6.192;2022-12-18T15:02:25;5.32;;;2.95;;
60716;SDS011;46566;52.700;6.192;2022-12-18T15:17:38;6.80;;;3.23;;
60716;SDS011;46566;52.700;6.192;2022-12-18T15:20:09;3.28;;;1.40;;
60716;SDS011;46566;52.700;6.192;2022-12-18T15:22:36;8.43;;;3.50;;
60716;SDS011;46566;52.700;6.192;2022-12-18T15:25:03;2.97;;;2.58;;
60716;SDS011;46566;52.700;6.192;2022-12-18T15:27:46;2.28;;;2.05;;
60716;SDS011;46566;52.700;6.192;2022-12-18T15:30:16;10.77;;;4.57;;
60716;SDS011;46566;52.700;6.192;2022-12-18T15:32:44;4.97;;;3.60;;
60716;SDS011;46566;52.700;6.192;2022-12-18T15:37:36;8.05;;;3.47;;
60716;SDS011;46566;52.700;6.192;2022-12-18T15:40:05;11.55;;;3.58;;
60716;SDS011;46566;52.700;6.192;2022-12-18T15:42:33;2.28;;;1.92;;
60716;SDS011;46566;52.700;6.192;2022-12-18T15:45:17;1.13;;;1.00;;
60716;SDS011;46566;52.700;6.192;2022-12-18T15:47:43;3.13;;;2.28;;
60716;SDS011;46566;52.700;6.192;2022-12-18T15:50:09;6.03;;;2.88;;
60716;SDS011;46566;52.700;6.192;2022-12-18T15:52:45;3.92;;;3.13;;
60716;SDS011;46566;52.700;6.192;2022-12-18T15:55:12;3.15;;;2.47;;
60716;SDS011;46566;52.700;6.192;2022-12-18T15:57:59;2.45;;;1.95;;
60716;SDS011;46566;52.700;6.192;2022-12-18T16:00:24;5.82;;;2.88;;
60716;SDS011;46566;52.700;6.192;2022-12-18T16:02:50;4.95;;;3.00;;
60716;SDS011;46566;52.700;6.192;2022-12-18T16:05:16;3.85;;;3.38;;
60716;SDS011;46566;52.700;6.192;2022-12-18T16:07:43;5.45;;;2.85;;
60716;SDS011;46566;52.700;6.192;2022-12-18T16:10:10;5.68;;;3.90;;
60716;SDS011;46566;52.700;6.192;2022-12-18T16:12:36;1.80;;;1.58;;
60716;SDS011;46566;52.700;6.192;2022-12-18T16:15:02;5.10;;;3.20;;
60716;SDS011;46566;52.700;6.192;2022-12-18T16:17:29;14.02;;;4.32;;
60716;SDS011;46566;52.700;6.192;2022-12-18T16:19:55;0.95;;;0.90;;
60716;SDS011;46566;52.700;6.192;2022-12-18T16:22:21;4.93;;;4.13;;
60716;SDS011;46566;52.700;6.192;2022-12-18T16:24:49;3.53;;;2.30;;
60716;SDS011;46566;52.700;6.192;2022-12-18T16:27:16;12.38;;;7.03;;
60716;SDS011;46566;52.700;6.192;2022-12-18T16:29:42;3.70;;;2.72;;
60716;SDS011;46566;52.700;6.192;2022-12-18T16:32:14;5.03;;;3.45;;
60716;SDS011;46566;52.700;6.192;2022-12-18T16:34:41;5.22;;;2.83;;
60716;SDS011;46566;52.700;6.192;2022-12-18T16:37:09;3.42;;;2.15;;
60716;SDS011;46566;52.700;6.192;2022-12-18T16:39:36;2.72;;;2.03;;
60716;SDS011;46566;52.700;6.192;2022-12-18T16:42:04;7.53;;;3.75;;
60716;SDS011;46566;52.700;6.192;2022-12-18T16:44:44;8.75;;;4.53;;
60716;SDS011;46566;52.700;6.192;2022-12-18T16:47:11;6.40;;;2.28;;
60716;SDS011;46566;52.700;6.192;2022-12-18T16:49:37;7.30;;;4.32;;
60716;SDS011;46566;52.700;6.192;2022-12-18T16:52:04;4.75;;;2.78;;
60716;SDS011;46566;52.700;6.192;2022-12-18T16:54:31;6.28;;;3.83;;
60716;SDS011;46566;52.700;6.192;2022-12-18T16:56:59;6.07;;;3.20;;
60716;SDS011;46566;52.700;6.192;2022-12-18T16:59:25;12.30;;;6.68;;
60716;SDS011;46566;52.700;6.192;2022-12-18T17:01:51;5.32;;;3.50;;
60716;SDS011;46566;52.700;6.192;2022-12-18T17:04:17;3.60;;;2.80;;
60716;SDS011;46566;52.700;6.192;2022-12-18T17:06:44;1.83;;;1.52;;
60716;SDS011;46566;52.700;6.192;2022-12-18T17:09:12;9.15;;;3.63;;
60716;SDS011;46566;52.700;6.192;2022-12-18T17:11:40;7.25;;;4.15;;
60716;SDS011;46566;52.700;6.192;2022-12-18T17:14:07;8.55;;;2.50;;
60716;SDS011;46566;52.700;6.192;2022-12-18T17:16:39;4.05;;;3.08;;
60716;SDS011;46566;52.700;6.192;2022-12-18T17:19:05;4.60;;;3.28;;